sensor_id;sensor_type;location;lat;lon;timestamp;pressure;altitude;pressure_sealevel;temperature;humidity
44148;BME280;29810;55.848;37.368;2023-04-01T00:02:52;97670.22;;;2.54;90.26
44148;BME280;29810;55.848;37.368;2023-04-01T00:05:54;97660.69;;;2.58;90.25
44148;BME280;29810;55.848;37.368;2023-04-01T00:08:55;97669.16;;;2.61;90.15
44148;BME280;29810;55.848;37.368;2023-04-01T00:11:57;97672.47;;;2.65;90.14
44148;BME280;29810;55.848;37.368;2023-04-01T00:14:58;97670.75;;;2.65;90.17
44148;BME280;29810;55.848;37.368;2023-04-01T00:18:00;97669.91;;;2.65;90.17
44148;BME280;29810;55.848;37.368;2023-04-01T00:21:01;97667.31;;;2.65;90.27
44148;BME280;29810;55.848;37.368;2023-04-01T00:24:03;97663.03;;;2.65;90.33
44148;BME280;29810;55.848;37.368;2023-04-01T00:27:05;97664.75;;;2.65;90.43
44148;BME280;29810;55.848;37.368;2023-04-01T00:30:06;97657.88;;;2.65;90.38
44148;BME280;29810;55.848;37.368;2023-04-01T00:33:08;97662.13;;;2.67;90.35
44148;BME280;29810;55.848;37.368;2023-04-01T00:36:11;97663.03;;;2.65;90.37
44148;BME280;29810;55.848;37.368;2023-04-01T00:39:12;97648.38;;;2.68;90.41
44148;BME280;29810;55.848;37.368;2023-04-01T00:42:14;97648.31;;;2.69;90.45
44148;BME280;29810;55.848;37.368;2023-04-01T00:48:36;97645.09;;;2.62;90.40
44148;BME280;29810;55.848;37.368;2023-04-01T00:51:39;97640.88;;;2.61;90.48
44148;BME280;29810;55.848;37.368;2023-04-01T00:54:42;97643.38;;;2.63;90.58
44148;BME280;29810;55.848;37.368;2023-04-01T00:57:46;97639.06;;;2.63;90.64
44148;BME280;29810;55.848;37.368;2023-04-01T01:00:49;97642.53;;;2.62;90.42
44148;BME280;29810;55.848;37.368;2023-04-01T01:03:51;97639.94;;;2.62;90.50
44148;BME280;29810;55.848;37.368;2023-04-01T01:10:20;97649.34;;;2.63;90.47
44148;BME280;29810;55.848;37.368;2023-04-01T01:13:26;97649.25;;;2.67;90.42
44148;BME280;29810;55.848;37.368;2023-04-01T01:16:34;97645.81;;;2.68;90.37
44148;BME280;29810;55.848;37.368;2023-04-01T01:19:46;97648.47;;;2.64;90.29
44148;BME280;29810;55.848;37.368;2023-04-01T01:22:54;97652.63;;;2.69;90.38
44148;BME280;29810;55.848;37.368;2023-04-01T01:35:57;97653.44;;;2.71;90.30
44148;BME280;29810;55.848;37.368;2023-04-01T01:39:01;97657.50;;;2.78;90.21
44148;BME280;29810;55.848;37.368;2023-04-01T01:42:04;97657.50;;;2.78;90.04
44148;BME280;29810;55.848;37.368;2023-04-01T01:45:07;97650.72;;;2.75;90.03
44148;BME280;29810;55.848;37.368;2023-04-01T01:48:10;97654.09;;;2.77;90.04
44148;BME280;29810;55.848;37.368;2023-04-01T01:51:12;97653.22;;;2.78;90.09
44148;BME280;29810;55.848;37.368;2023-04-01T01:54:15;97654.97;;;2.76;89.96
44148;BME280;29810;55.848;37.368;2023-04-01T01:57:16;97652.34;;;2.78;90.17
44148;BME280;29810;55.848;37.368;2023-04-01T02:00:20;97654.88;;;2.79;90.03
44148;BME280;29810;55.848;37.368;2023-04-01T02:03:23;97649.84;;;2.76;90.01
44148;BME280;29810;55.848;37.368;2023-04-01T02:06:27;97647.22;;;2.78;90.03
44148;BME280;29810;55.848;37.368;2023-04-01T02:09:30;97654.00;;;2.80;90.08
44148;BME280;29810;55.848;37.368;2023-04-01T02:12:31;97651.44;;;2.80;89.98
44148;BME280;29810;55.848;37.368;2023-04-01T02:15:36;97657.44;;;2.81;90.00
44148;BME280;29810;55.848;37.368;2023-04-01T02:18:38;97652.28;;;2.81;89.96
44148;BME280;29810;55.848;37.368;2023-04-01T02:21:40;97650.53;;;2.81;89.85
44148;BME280;29810;55.848;37.368;2023-04-01T02:24:43;97654.06;;;2.79;89.84
44148;BME280;29810;55.848;37.368;2023-04-01T02:27:46;97659.31;;;2.76;89.83
44148;BME280;29810;55.848;37.368;2023-04-01T02:30:48;97657.62;;;2.75;89.71
44148;BME280;29810;55.848;37.368;2023-04-01T02:33:51;97661.06;;;2.74;89.66
44148;BME280;29810;55.848;37.368;2023-04-01T02:36:53;97667.91;;;2.75;89.59
44148;BME280;29810;55.848;37.368;2023-04-01T02:39:59;97673.00;;;2.76;89.56
44148;BME280;29810;55.848;37.368;2023-04-01T02:43:01;97662.72;;;2.76;89.46
44148;BME280;29810;55.848;37.368;2023-04-01T02:46:02;97668.75;;;2.75;89.35
44148;BME280;29810;55.848;37.368;2023-04-01T02:49:03;97669.63;;;2.74;89.37
44148;BME280;29810;55.848;37.368;2023-04-01T02:52:05;97674.00;;;2.72;89.43
44148;BME280;29810;55.848;37.368;2023-04-01T02:55:07;97677.34;;;2.74;89.50
44148;BME280;29810;55.848;37.368;2023-04-01T02:58:08;97682.50;;;2.74;89.43
44148;BME280;29810;55.848;37.368;2023-04-01T03:01:10;97682.47;;;2.76;89.47
44148;BME280;29810;55.848;37.368;2023-04-01T03:04:11;97685.00;;;2.77;89.39
44148;BME280;29810;55.848;37.368;2023-04-01T03:07:13;97684.94;;;2.79;89.37
44148;BME280;29810;55.848;37.368;2023-04-01T03:10:15;97688.28;;;2.83;89.37
44148;BME280;29810;55.848;37.368;2023-04-01T03:13:16;97680.31;;;2.90;89.14
44148;BME280;29810;55.848;37.368;2023-04-01T03:16:18;97685.38;;;2.93;89.07
44148;BME280;29810;55.848;37.368;2023-04-01T03:19:19;97685.31;;;2.95;88.85
44148;BME280;29810;55.848;37.368;2023-04-01T03:22:21;97689.53;;;2.97;88.93
44148;BME280;29810;55.848;37.368;2023-04-01T03:25:22;97689.53;;;2.97;88.94
44148;BME280;29810;55.848;37.368;2023-04-01T03:28:24;97687.72;;;3.01;88.96
44148;BME280;29810;55.848;37.368;2023-04-01T03:31:26;97686.81;;;3.02;88.91
44148;BME280;29810;55.848;37.368;2023-04-01T03:34:27;97685.25;;;2.98;88.98
44148;BME280;29810;55.848;37.368;2023-04-01T03:37:29;97692.16;;;2.96;89.15
44148;BME280;29810;55.848;37.368;2023-04-01T03:40:31;97695.66;;;2.93;89.18
44148;BME280;29810;55.848;37.368;2023-04-01T03:43:35;97695.66;;;2.93;89.37
44148;BME280;29810;55.848;37.368;2023-04-01T03:46:36;97699.66;;;3.04;89.27
44148;BME280;29810;55.848;37.368;2023-04-01T03:49:39;97708.13;;;3.07;89.09
44148;BME280;29810;55.848;37.368;2023-04-01T03:52:40;97711.53;;;3.08;88.85
44148;BME280;29810;55.848;37.368;2023-04-01T03:55:41;97720.16;;;3.07;88.80
44148;BME280;29810;55.848;37.368;2023-04-01T03:58:43;97713.34;;;3.04;88.74
44148;BME280;29810;55.848;37.368;2023-04-01T04:01:46;97721.84;;;3.08;88.77
44148;BME280;29810;55.848;37.368;2023-04-01T04:04:47;97728.53;;;3.13;88.82
44148;BME280;29810;55.848;37.368;2023-04-01T04:07:49;97728.38;;;3.18;88.79
44148;BME280;29810;55.848;37.368;2023-04-01T04:10:54;97734.31;;;3.22;88.77
44148;BME280;29810;55.848;37.368;2023-04-01T04:13:56;97736.81;;;3.23;88.71
44148;BME280;29810;55.848;37.368;2023-04-01T04:17:00;97732.56;;;3.22;88.59
44148;BME280;29810;55.848;37.368;2023-04-01T04:20:02;97741.03;;;3.26;88.72
44148;BME280;29810;55.848;37.368;2023-04-01T04:23:04;97740.22;;;3.24;88.55
44148;BME280;29810;55.848;37.368;2023-04-01T04:26:07;97741.00;;;3.27;88.52
44148;BME280;29810;55.848;37.368;2023-04-01T04:29:10;97755.38;;;3.35;88.45
44148;BME280;29810;55.848;37.368;2023-04-01T04:32:11;97750.13;;;3.38;88.38
44148;BME280;29810;55.848;37.368;2023-04-01T04:35:13;97751.66;;;3.43;88.22
44148;BME280;29810;55.848;37.368;2023-04-01T04:38:14;97755.81;;;3.47;88.17
44148;BME280;29810;55.848;37.368;2023-04-01T04:41:17;97750.41;;;3.57;88.02
44148;BME280;29810;55.848;37.368;2023-04-01T04:44:21;97747.34;;;3.44;87.30
44148;BME280;29810;55.848;37.368;2023-04-01T04:47:23;97753.94;;;3.53;87.95
44148;BME280;29810;55.848;37.368;2023-04-01T04:50:24;97764.69;;;3.65;88.03
44148;BME280;29810;55.848;37.368;2023-04-01T04:53:26;97757.59;;;3.74;87.88
44148;BME280;29810;55.848;37.368;2023-04-01T04:56:27;97765.78;;;3.85;87.65
44148;BME280;29810;55.848;37.368;2023-04-01T04:59:33;97770.63;;;3.94;87.45
44148;BME280;29810;55.848;37.368;2023-04-01T05:02:36;97778.28;;;3.97;87.20
44148;BME280;29810;55.848;37.368;2023-04-01T05:05:38;97777.50;;;3.95;87.24
44148;BME280;29810;55.848;37.368;2023-04-01T05:08:40;97773.72;;;4.06;87.37
44148;BME280;29810;55.848;37.368;2023-04-01T05:11:43;97770.06;;;4.13;87.11
44148;BME280;29810;55.848;37.368;2023-04-01T05:14:47;97776.97;;;4.11;87.11
44148;BME280;29810;55.848;37.368;2023-04-01T05:17:49;97783.59;;;4.18;87.12
44148;BME280;29810;55.848;37.368;2023-04-01T05:20:51;97775.47;;;4.30;86.88
44148;BME280;29810;55.848;37.368;2023-04-01T05:23:54;97787.84;;;4.46;86.48
44148;BME280;29810;55.848;37.368;2023-04-01T05:26:56;97780.53;;;4.57;86.24
44148;BME280;29810;55.848;37.368;2023-04-01T05:29:58;97794.12;;;4.62;85.98
44148;BME280;29810;55.848;37.368;2023-04-01T05:33:01;97791.47;;;4.66;85.89
44148;BME280;29810;55.848;37.368;2023-04-01T05:36:10;97793.03;;;4.70;85.64
44148;BME280;29810;55.848;37.368;2023-04-01T05:39:11;97790.31;;;4.73;85.77
44148;BME280;29810;55.848;37.368;2023-04-01T05:42:14;97792.00;;;4.74;85.47
44148;BME280;29810;55.848;37.368;2023-04-01T05:45:17;97791.81;;;4.80;85.49
44148;BME280;29810;55.848;37.368;2023-04-01T05:48:19;97793.25;;;4.87;85.32
44148;BME280;29810;55.848;37.368;2023-04-01T05:51:21;97788.66;;;4.95;85.25
44148;BME280;29810;55.848;37.368;2023-04-01T05:54:22;97788.31;;;5.05;85.06
44148;BME280;29810;55.848;37.368;2023-04-01T05:57:25;97792.00;;;5.21;84.49
44148;BME280;29810;55.848;37.368;2023-04-01T06:00:27;97795.81;;;5.35;84.29
44148;BME280;29810;55.848;37.368;2023-04-01T06:03:32;97793.28;;;5.55;83.70
44148;BME280;29810;55.848;37.368;2023-04-01T06:06:37;97796.72;;;5.78;83.49
44148;BME280;29810;55.848;37.368;2023-04-01T06:09:40;97800.22;;;5.99;82.93
44148;BME280;29810;55.848;37.368;2023-04-01T06:12:50;97797.72;;;6.18;82.52
44148;BME280;29810;55.848;37.368;2023-04-01T06:16:06;97790.16;;;6.34;81.97
44148;BME280;29810;55.848;37.368;2023-04-01T06:44:53;97824.91;;;6.06;80.25
44148;BME280;29810;55.848;37.368;2023-04-01T06:51:54;97818.88;;;6.88;79.77
44148;BME280;29810;55.848;37.368;2023-04-01T06:55:18;97824.06;;;7.28;78.49
44148;BME280;29810;55.848;37.368;2023-04-01T06:58:28;97833.84;;;7.59;77.97
44148;BME280;29810;55.848;37.368;2023-04-01T07:01:39;97834.84;;;7.93;75.94
44148;BME280;29810;55.848;37.368;2023-04-01T07:04:46;97831.81;;;8.38;75.26
44148;BME280;29810;55.848;37.368;2023-04-01T07:07:50;97821.53;;;8.87;74.64
44148;BME280;29810;55.848;37.368;2023-04-01T07:10:55;97826.38;;;9.11;72.77
44148;BME280;29810;55.848;37.368;2023-04-01T07:17:23;97834.72;;;8.67;70.73
44148;BME280;29810;55.848;37.368;2023-04-01T07:20:29;97833.41;;;9.09;71.29
44148;BME280;29810;55.848;37.368;2023-04-01T07:23:32;97827.59;;;9.53;70.57
44148;BME280;29810;55.848;37.368;2023-04-01T07:26:40;97829.69;;;9.63;70.13
44148;BME280;29810;55.848;37.368;2023-04-01T07:29:42;97837.47;;;9.78;70.10
44148;BME280;29810;55.848;37.368;2023-04-01T07:35:55;97836.69;;;10.39;68.04
44148;BME280;29810;55.848;37.368;2023-04-01T07:42:15;97844.00;;;10.48;68.15
44148;BME280;29810;55.848;37.368;2023-04-01T07:45:31;97844.44;;;10.24;69.19
44148;BME280;29810;55.848;37.368;2023-04-01T07:48:49;97842.94;;;9.74;69.75
44148;BME280;29810;55.848;37.368;2023-04-01T08:11:27;97855.59;;;10.42;66.54
44148;BME280;29810;55.848;37.368;2023-04-01T08:20:58;97868.53;;;10.44;66.15
44148;BME280;29810;55.848;37.368;2023-04-01T08:24:06;97866.63;;;10.32;64.75
44148;BME280;29810;55.848;37.368;2023-04-01T08:27:26;97862.41;;;10.45;65.64
44148;BME280;29810;55.848;37.368;2023-04-01T08:33:52;97866.97;;;10.72;64.67
44148;BME280;29810;55.848;37.368;2023-04-01T08:37:04;97863.62;;;10.23;62.81
44148;BME280;29810;55.848;37.368;2023-04-01T08:40:19;97862.13;;;9.39;62.04
44148;BME280;29810;55.848;37.368;2023-04-01T08:43:42;97875.63;;;8.45;63.62
44148;BME280;29810;55.848;37.368;2023-04-01T08:50:09;97876.25;;;8.32;65.75
44148;BME280;29810;55.848;37.368;2023-04-01T08:56:46;97881.66;;;8.46;63.29
44148;BME280;29810;55.848;37.368;2023-04-01T09:16:27;97885.53;;;9.23;63.72
44148;BME280;29810;55.848;37.368;2023-04-01T09:22:42;97894.72;;;9.78;62.93
44148;BME280;29810;55.848;37.368;2023-04-01T09:26:06;97889.53;;;9.78;62.67
44148;BME280;29810;55.848;37.368;2023-04-01T09:35:24;97897.56;;;10.06;61.79
44148;BME280;29810;55.848;37.368;2023-04-01T09:41:51;97905.25;;;10.09;62.55
44148;BME280;29810;55.848;37.368;2023-04-01T09:45:03;97912.47;;;10.04;61.61
44148;BME280;29810;55.848;37.368;2023-04-01T09:48:46;97908.31;;;10.00;59.60
44148;BME280;29810;55.848;37.368;2023-04-01T10:20:00;97927.47;;;10.15;54.29
44148;BME280;29810;55.848;37.368;2023-04-01T10:26:27;97931.25;;;10.25;55.10
44148;BME280;29810;55.848;37.368;2023-04-01T10:39:17;97942.00;;;10.81;53.37
44148;BME280;29810;55.848;37.368;2023-04-01T10:58:53;97950.66;;;10.19;55.65
44148;BME280;29810;55.848;37.368;2023-04-01T11:24:45;97950.91;;;9.83;56.26
44148;BME280;29810;55.848;37.368;2023-04-01T11:31:43;97953.53;;;9.99;54.35
44148;BME280;29810;55.848;37.368;2023-04-01T11:38:14;97956.38;;;11.03;53.36
44148;BME280;29810;55.848;37.368;2023-04-01T11:44:28;97960.72;;;11.76;51.97
44148;BME280;29810;55.848;37.368;2023-04-01T11:54:09;97957.94;;;11.79;52.55
44148;BME280;29810;55.848;37.368;2023-04-01T12:00:22;97954.53;;;11.91;46.46
44148;BME280;29810;55.848;37.368;2023-04-01T12:03:43;97958.59;;;11.97;50.49
44148;BME280;29810;55.848;37.368;2023-04-01T12:09:56;97957.13;;;12.20;51.24
44148;BME280;29810;55.848;37.368;2023-04-01T12:19:28;97959.66;;;12.07;50.54
44148;BME280;29810;55.848;37.368;2023-04-01T12:35:27;97978.94;;;11.63;48.94
44148;BME280;29810;55.848;37.368;2023-04-01T12:41:59;97975.09;;;11.69;49.27
44148;BME280;29810;55.848;37.368;2023-04-01T12:48:27;97969.31;;;11.78;47.56
44148;BME280;29810;55.848;37.368;2023-04-01T12:51:36;97972.28;;;11.72;48.23
44148;BME280;29810;55.848;37.368;2023-04-01T13:04:36;97987.56;;;11.20;49.40
44148;BME280;29810;55.848;37.368;2023-04-01T13:08:02;97977.69;;;11.25;50.29
44148;BME280;29810;55.848;37.368;2023-04-01T13:24:17;98010.84;;;10.63;50.29
44148;BME280;29810;55.848;37.368;2023-04-01T13:30:37;98009.25;;;10.44;51.47
44148;BME280;29810;55.848;37.368;2023-04-01T13:49:57;98040.44;;;9.80;52.04
44148;BME280;29810;55.848;37.368;2023-04-01T13:56:27;98047.56;;;9.59;53.01
44148;BME280;29810;55.848;37.368;2023-04-01T13:59:42;98053.16;;;9.69;51.80
44148;BME280;29810;55.848;37.368;2023-04-01T14:19:00;98059.38;;;9.49;52.28
44148;BME280;29810;55.848;37.368;2023-04-01T14:41:20;98085.19;;;8.82;53.12
44148;BME280;29810;55.848;37.368;2023-04-01T14:47:51;98081.59;;;8.84;53.53
44148;BME280;29810;55.848;37.368;2023-04-01T14:50:57;98091.38;;;8.79;53.79
44148;BME280;29810;55.848;37.368;2023-04-01T14:54:46;98092.38;;;8.76;54.30
44148;BME280;29810;55.848;37.368;2023-04-01T14:57:28;98102.47;;;8.83;54.50
44148;BME280;29810;55.848;37.368;2023-04-01T15:00:36;98116.47;;;8.80;54.95
44148;BME280;29810;55.848;37.368;2023-04-01T15:03:48;98091.97;;;8.67;55.32
44148;BME280;29810;55.848;37.368;2023-04-01T15:07:01;98113.44;;;8.70;56.15
44148;BME280;29810;55.848;37.368;2023-04-01T15:16:39;98115.34;;;8.67;57.15
44148;BME280;29810;55.848;37.368;2023-04-01T15:23:11;98121.62;;;8.63;57.77
44148;BME280;29810;55.848;37.368;2023-04-01T15:32:47;98142.34;;;8.43;59.09
44148;BME280;29810;55.848;37.368;2023-04-01T15:39:18;98147.09;;;8.34;59.83
44148;BME280;29810;55.848;37.368;2023-04-01T15:42:32;98146.50;;;8.28;60.23
44148;BME280;29810;55.848;37.368;2023-04-01T15:51:56;98161.00;;;7.93;63.22
44148;BME280;29810;55.848;37.368;2023-04-01T16:04:46;98175.41;;;8.00;63.12
44148;BME280;29810;55.848;37.368;2023-04-01T16:07:53;98178.00;;;8.00;63.29
44148;BME280;29810;55.848;37.368;2023-04-01T16:20:49;98191.47;;;7.88;64.80
44148;BME280;29810;55.848;37.368;2023-04-01T16:23:56;98200.78;;;7.93;64.88
44148;BME280;29810;55.848;37.368;2023-04-01T16:27:03;98198.03;;;7.96;64.92
44148;BME280;29810;55.848;37.368;2023-04-01T16:30:24;98197.25;;;7.94;65.17
44148;BME280;29810;55.848;37.368;2023-04-01T16:33:37;98202.44;;;7.94;65.40
44148;BME280;29810;55.848;37.368;2023-04-01T16:36:43;98208.56;;;7.93;65.52
44148;BME280;29810;55.848;37.368;2023-04-01T16:39:49;98213.94;;;7.89;65.99
44148;BME280;29810;55.848;37.368;2023-04-01T16:43:11;98217.66;;;7.83;66.34
44148;BME280;29810;55.848;37.368;2023-04-01T16:46:17;98222.91;;;7.82;66.76
44148;BME280;29810;55.848;37.368;2023-04-01T16:59:04;98219.19;;;7.87;67.19
44148;BME280;29810;55.848;37.368;2023-04-01T17:02:10;98218.22;;;7.90;67.15
44148;BME280;29810;55.848;37.368;2023-04-01T17:05:13;98223.34;;;7.91;67.22
44148;BME280;29810;55.848;37.368;2023-04-01T17:08:28;98230.38;;;7.89;67.71
44148;BME280;29810;55.848;37.368;2023-04-01T17:11:37;98224.38;;;7.87;67.75
44148;BME280;29810;55.848;37.368;2023-04-01T17:21:10;98227.00;;;7.87;68.00
44148;BME280;29810;55.848;37.368;2023-04-01T17:27:42;98237.22;;;7.90;68.15
44148;BME280;29810;55.848;37.368;2023-04-01T17:30:49;98238.91;;;7.91;68.31
44148;BME280;29810;55.848;37.368;2023-04-01T17:33:58;98238.47;;;7.82;68.91
44148;BME280;29810;55.848;37.368;2023-04-01T17:37:06;98241.00;;;7.83;68.75
44148;BME280;29810;55.848;37.368;2023-04-01T17:40:53;98244.31;;;7.87;68.87
44148;BME280;29810;55.848;37.368;2023-04-01T17:47:00;98235.81;;;7.83;69.16
44148;BME280;29810;55.848;37.368;2023-04-01T17:50:51;98241.91;;;7.82;69.12
44148;BME280;29810;55.848;37.368;2023-04-01T17:57:05;98246.38;;;7.78;69.49
44148;BME280;29810;55.848;37.368;2023-04-01T18:09:48;98255.25;;;7.73;70.30
44148;BME280;29810;55.848;37.368;2023-04-01T18:26:34;98269.50;;;7.62;71.04
44148;BME280;29810;55.848;37.368;2023-04-01T18:29:51;98268.91;;;7.56;71.17
44148;BME280;29810;55.848;37.368;2023-04-01T18:55:18;98309.53;;;7.55;71.81
44148;BME280;29810;55.848;37.368;2023-04-01T18:58:23;98316.91;;;7.44;72.95
44148;BME280;29810;55.848;37.368;2023-04-01T19:04:39;98321.97;;;7.47;72.38
44148;BME280;29810;55.848;37.368;2023-04-01T19:07:51;98312.94;;;7.57;72.18
44148;BME280;29810;55.848;37.368;2023-04-01T19:20:09;98312.81;;;7.60;72.50
44148;BME280;29810;55.848;37.368;2023-04-01T19:33:07;98321.50;;;7.59;72.78
44148;BME280;29810;55.848;37.368;2023-04-01T19:39:34;98335.47;;;7.55;73.24
44148;BME280;29810;55.848;37.368;2023-04-01T19:45:51;98330.97;;;7.60;73.50
44148;BME280;29810;55.848;37.368;2023-04-01T19:52:19;98337.19;;;7.56;73.59
44148;BME280;29810;55.848;37.368;2023-04-01T19:55:38;98339.84;;;7.55;73.72
44148;BME280;29810;55.848;37.368;2023-04-01T19:58:44;98341.47;;;7.57;74.04
44148;BME280;29810;55.848;37.368;2023-04-01T20:05:30;98344.91;;;7.58;74.34
44148;BME280;29810;55.848;37.368;2023-04-01T20:08:42;98344.97;;;7.56;74.19
44148;BME280;29810;55.848;37.368;2023-04-01T20:11:58;98348.41;;;7.57;74.38
44148;BME280;29810;55.848;37.368;2023-04-01T20:15:03;98346.59;;;7.59;74.25
44148;BME280;29810;55.848;37.368;2023-04-01T20:18:16;98350.28;;;7.53;74.69
44148;BME280;29810;55.848;37.368;2023-04-01T20:24:21;98346.50;;;7.62;74.77
44148;BME280;29810;55.848;37.368;2023-04-01T20:27:26;98348.13;;;7.65;74.59
44148;BME280;29810;55.848;37.368;2023-04-01T20:53:01;98335.16;;;7.65;75.81
44148;BME280;29810;55.848;37.368;2023-04-01T21:06:20;98356.88;;;7.62;76.49
44148;BME280;29810;55.848;37.368;2023-04-01T21:12:56;98362.44;;;7.51;76.96
44148;BME280;29810;55.848;37.368;2023-04-01T21:19:25;98363.47;;;7.47;76.75
44148;BME280;29810;55.848;37.368;2023-04-01T21:29:18;98368.66;;;7.47;76.92
44148;BME280;29810;55.848;37.368;2023-04-01T21:32:36;98373.44;;;7.58;76.29
44148;BME280;29810;55.848;37.368;2023-04-01T21:36:03;98372.53;;;7.59;76.38
44148;BME280;29810;55.848;37.368;2023-04-01T22:05:41;98383.41;;;7.69;76.57
44148;BME280;29810;55.848;37.368;2023-04-01T22:08:50;98372.91;;;7.72;76.79
44148;BME280;29810;55.848;37.368;2023-04-01T22:12:01;98380.47;;;7.78;76.67
44148;BME280;29810;55.848;37.368;2023-04-01T22:21:24;98392.31;;;7.61;77.02
44148;BME280;29810;55.848;37.368;2023-04-01T22:24:37;98388.97;;;7.59;77.32
44148;BME280;29810;55.848;37.368;2023-04-01T22:27:43;98392.47;;;7.58;77.38
44148;BME280;29810;55.848;37.368;2023-04-01T22:30:51;98383.59;;;7.64;77.30
44148;BME280;29810;55.848;37.368;2023-04-01T22:34:09;98385.16;;;7.68;77.27
44148;BME280;29810;55.848;37.368;2023-04-01T22:40:50;98391.97;;;7.71;77.63
44148;BME280;29810;55.848;37.368;2023-04-01T22:43:56;98380.69;;;7.72;77.51
44148;BME280;29810;55.848;37.368;2023-04-01T23:00:06;98388.06;;;7.83;78.02
44148;BME280;29810;55.848;37.368;2023-04-01T23:06:32;98404.59;;;7.80;78.35
44148;BME280;29810;55.848;37.368;2023-04-01T23:09:35;98408.87;;;7.81;78.41
44148;BME280;29810;55.848;37.368;2023-04-01T23:12:38;98406.34;;;7.79;78.37
44148;BME280;29810;55.848;37.368;2023-04-01T23:15:40;98407.19;;;7.80;78.37
44148;BME280;29810;55.848;37.368;2023-04-01T23:18:46;98399.41;;;7.80;78.76
44148;BME280;29810;55.848;37.368;2023-04-01T23:21:54;98411.06;;;7.70;79.18
44148;BME280;29810;55.848;37.368;2023-04-01T23:25:15;98407.72;;;7.66;79.43
44148;BME280;29810;55.848;37.368;2023-04-01T23:31:38;98405.19;;;7.65;79.88
44148;BME280;29810;55.848;37.368;2023-04-01T23:34:45;98413.81;;;7.65;80.07
44148;BME280;29810;55.848;37.368;2023-04-01T23:37:47;98405.97;;;7.67;79.84
44148;BME280;29810;55.848;37.368;2023-04-01T23:40:49;98409.47;;;7.66;80.59
44148;BME280;29810;55.848;37.368;2023-04-01T23:46:58;98403.59;;;7.60;80.96
44148;BME280;29810;55.848;37.368;2023-04-01T23:50:01;98400.41;;;7.54;81.47
44148;BME280;29810;55.848;37.368;2023-04-01T23:53:13;98408.13;;;7.55;81.78
44148;BME280;29810;55.848;37.368;2023-04-01T23:56:16;98408.03;;;7.58;81.67
44148;BME280;29810;55.848;37.368;2023-04-01T23:59:22;98412.34;;;7.58;81.86
